.
WxDataArchive / Data Records for 2015-02-09
2015-02-08 February 2015 2015-02-10

Data Records for Monday, 09 February 2015

Time	Temp	Chill	HIndex	Humid	Dewpt	 Wind 	HiWind	WindDir	Rain 	Barom
-----	----	-----	------	-----	-----	------	------	-------	-----	-----
00:00	30.3	30.3	30.3	89	27.5	1	4	112	0.00	29.869 
00:05	30.3	30.3	30.3	88	27.2	1	5	90	0.00	29.869 
00:10	30.1	30.1	30.1	88	27.0	1	5	45	0.00	29.869 
00:15	30.1	30.1	30.1	88	27.0	0	3	45	0.00	29.875 
00:20	30.0	30.0	30.0	88	26.9	2	5	68	0.00	29.875 
00:25	29.8	29.8	29.8	88	26.7	2	9	22	0.00	29.875 
00:30	29.7	29.7	29.7	88	26.6	1	5	22	0.00	29.882 
00:35	29.5	29.5	29.5	88	26.4	1	3	45	0.00	29.882 
00:40	29.4	29.4	29.4	88	26.3	1	5	45	0.00	29.882 
00:45	29.1	29.1	29.1	88	26.0	1	5	45	0.00	29.888 
00:50	28.8	28.8	28.8	88	25.7	1	5	112	0.00	29.888 
00:55	28.5	28.5	28.5	88	25.4	0	4	338	0.00	29.888 
01:00	28.4	28.4	28.4	88	25.3	1	4	112	0.00	29.899 
01:05	28.2	28.2	28.2	88	25.1	1	5	45	0.00	29.899 
01:10	27.9	27.9	27.9	88	24.8	1	5	112	0.00	29.899 
01:15	27.8	27.8	27.8	88	24.7	0	2	112	0.00	29.897 
01:20	27.6	27.6	27.6	88	24.5	1	4	45	0.00	29.897 
01:25	27.5	27.5	27.5	89	24.7	1	2	45	0.00	29.897 
01:30	27.2	27.2	27.2	89	24.4	1	5	338	0.00	29.900 
01:35	27.0	27.0	27.0	89	24.2	2	5	315	0.00	29.900 
01:40	27.0	27.0	27.0	89	24.2	1	2	338	0.00	29.900 
01:45	26.9	26.9	26.9	89	24.1	1	4	338	0.00	29.904 
01:50	26.9	26.9	26.9	89	24.1	2	6	68	0.00	29.904 
01:55	26.7	26.7	26.7	89	23.9	1	3	68	0.00	29.904 
02:00	26.7	26.7	26.7	89	23.9	2	4	292	0.00	29.911 
02:05	26.6	26.6	26.6	89	23.8	1	5	68	0.00	29.911 
02:10	26.4	26.4	26.4	89	23.6	0	2	68	0.00	29.911 
02:15	26.4	26.4	26.4	89	23.6	1	3	45	0.00	29.919 
02:20	26.1	26.1	26.1	89	23.3	1	5	338	0.00	29.919 
02:25	26.0	26.0	26.0	89	23.2	2	6	45	0.00	29.919 
02:30	25.8	25.8	25.8	89	23.0	2	5	90	0.00	29.922 
02:35	25.8	25.8	25.8	89	23.0	1	3	90	0.00	29.922 
02:40	25.8	25.8	25.8	89	23.0	1	5	90	0.00	29.922 
02:45	25.8	25.8	25.8	89	23.0	1	4	45	0.00	29.922 
02:50	25.7	25.7	25.7	88	22.6	1	3	112	0.00	29.922 
02:55	25.6	25.6	25.6	88	22.5	1	5	45	0.00	29.922 
03:00	25.4	25.4	25.4	88	22.4	1	3	22	0.00	29.931 
03:05	25.3	25.3	25.3	89	22.5	0	3	22	0.00	29.931 
03:10	25.3	25.3	25.3	89	22.5	1	4	45	0.00	29.931 
03:15	25.1	25.1	25.1	89	22.3	0	2	68	0.00	29.936 
03:20	25.0	25.0	25.0	89	22.2	1	7	338	0.00	29.936 
03:25	24.8	24.8	24.8	89	22.0	1	6	0	0.00	29.936 
03:30	24.8	24.8	24.8	89	22.0	0	4	22	0.00	29.937 
03:35	24.7	24.7	24.7	89	21.9	1	4	22	0.00	29.937 
03:40	24.7	24.7	24.7	89	21.9	1	3	22	0.00	29.937 
03:45	24.5	24.5	24.5	89	21.7	1	4	45	0.00	29.941 
03:50	24.5	24.5	24.5	89	21.7	1	3	338	0.00	29.941 
03:55	24.4	24.4	24.4	89	21.6	1	3	45	0.00	29.941 
04:00	24.4	24.4	24.4	89	21.6	1	4	112	0.00	29.944 
04:05	24.4	24.4	24.4	89	21.6	0	3	45	0.00	29.944 
04:10	24.4	24.4	24.4	89	21.6	1	5	315	0.00	29.944 
04:15	24.4	24.4	24.4	89	21.6	0	2	338	0.00	29.952 
04:20	24.4	24.4	24.4	89	21.6	1	6	338	0.00	29.952 
04:25	24.2	24.2	24.2	89	21.4	1	5	68	0.00	29.952 
04:30	24.1	24.1	24.1	89	21.3	1	5	338	0.00	29.956 
04:35	24.1	24.1	24.1	89	21.3	0	3	135	0.00	29.956 
04:40	24.1	24.1	24.1	89	21.3	1	3	112	0.00	29.956 
04:45	24.1	24.1	24.1	89	21.3	1	4	68	0.00	29.957 
04:50	23.9	23.9	23.9	89	21.1	1	5	112	0.00	29.957 
04:55	23.9	23.9	23.9	89	21.1	1	3	112	0.00	29.957 
05:00	23.9	23.9	23.9	89	21.1	0	3	0	0.00	29.962 
05:05	23.9	23.9	23.9	89	21.1	1	5	45	0.00	29.962 
05:10	23.9	23.9	23.9	89	21.1	1	5	45	0.00	29.962 
05:15	23.8	23.8	23.8	89	21.0	1	6	22	0.00	29.962 
05:20	23.8	23.8	23.8	89	21.0	0	2	45	0.00	29.962 
05:25	23.8	23.8	23.8	89	21.0	1	4	112	0.00	29.962 
05:30	23.8	23.8	23.8	89	21.0	1	5	90	0.00	29.967 
05:35	23.8	23.8	23.8	89	21.0	1	4	68	0.00	29.967 
05:40	23.8	23.8	23.8	89	21.0	1	3	68	0.00	29.967 
05:45	23.6	23.6	23.6	89	20.8	1	3	68	0.00	29.974 
05:50	23.5	23.5	23.5	89	20.7	1	7	68	0.00	29.974 
05:55	23.3	23.3	23.3	88	20.3	1	5	90	0.00	29.974 
06:00	23.2	23.2	23.2	88	20.2	1	3	45	0.00	29.981 
06:05	23.0	23.0	23.0	88	20.0	1	5	68	0.00	29.981 
06:10	23.0	23.0	23.0	88	20.0	1	4	45	0.00	29.981 
06:15	23.0	23.0	23.0	88	20.0	1	3	45	0.00	29.992 
06:20	23.0	23.0	23.0	88	20.0	0	2	68	0.00	29.992 
06:25	22.9	22.9	22.9	88	19.9	1	5	68	0.00	29.992 
06:30	22.9	22.9	22.9	88	19.9	1	4	315	0.00	30.002 
06:35	22.9	22.9	22.9	87	19.6	1	5	90	0.00	30.002 
06:40	22.9	22.9	22.9	87	19.6	1	4	45	0.00	30.002 
06:45	22.7	22.7	22.7	86	19.2	1	5	45	0.00	30.007 
06:50	22.9	22.9	22.9	86	19.4	1	4	45	0.00	30.007 
06:55	22.9	22.9	22.9	86	19.4	1	4	68	0.00	30.007 
07:00	22.9	22.9	22.9	86	19.4	1	3	68	0.00	30.010 
07:05	22.9	22.9	22.9	86	19.4	0	3	22	0.00	30.010 
07:10	22.9	22.9	22.9	86	19.4	0	3	22	0.00	30.010 
07:15	22.9	22.9	22.9	86	19.4	1	3	45	0.00	30.025 
07:20	22.7	22.7	22.7	85	18.9	1	3	22	0.00	30.025 
07:25	22.7	22.7	22.7	85	18.9	0	3	90	0.00	30.025 
07:30	22.7	22.7	22.7	85	18.9	0	3	90	0.00	30.033 
07:35	22.5	22.5	22.5	85	18.7	1	4	90	0.00	30.033 
07:40	22.5	22.5	22.5	84	18.4	1	2	45	0.00	30.033 
07:45	22.4	22.4	22.4	84	18.3	1	2	315	0.00	30.042 
07:50	22.4	22.4	22.4	84	18.3	1	5	45	0.00	30.042 
07:55	22.4	22.4	22.4	84	18.3	1	4	112	0.00	30.042 
08:00	22.4	22.4	22.4	84	18.3	0	3	90	0.00	30.047 
08:05	22.4	22.4	22.4	84	18.3	1	4	338	0.00	30.047 
08:10	22.4	22.4	22.4	84	18.3	1	4	338	0.00	30.047 
08:15	22.2	22.2	22.2	85	18.4	1	4	45	0.00	30.060 
08:20	22.2	22.2	22.2	85	18.4	1	5	68	0.00	30.060 
08:25	22.2	22.2	22.2	85	18.4	1	4	90	0.00	30.060 
08:30	22.2	22.2	22.2	85	18.4	0	3	68	0.00	30.062 
08:35	22.2	22.2	22.2	85	18.4	0	2	68	0.00	30.062 
08:40	22.4	22.4	22.4	85	18.6	1	2	68	0.00	30.062 
08:45	22.4	22.4	22.4	84	18.3	1	4	90	0.00	30.064 
08:50	22.4	22.4	22.4	84	18.3	1	3	90	0.00	30.064 
08:55	22.5	22.5	22.5	84	18.4	0	2	90	0.00	30.064 
09:00	22.7	22.7	22.7	83	18.3	1	3	22	0.00	30.066 
09:05	22.7	22.7	22.7	82	18.0	1	4	68	0.00	30.066 
09:10	22.7	22.7	22.7	81	17.8	1	4	338	0.00	30.066 
09:15	22.9	22.9	22.9	81	18.0	0	2	338	0.00	30.068 
09:20	23.0	23.0	23.0	81	18.1	1	3	338	0.00	30.068 
09:25	23.0	23.0	23.0	81	18.1	1	3	68	0.00	30.068 
09:30	23.0	23.0	23.0	80	17.8	1	4	68	0.00	30.067 
09:35	23.2	23.2	23.2	80	18.0	1	3	315	0.00	30.067 
09:40	23.3	23.3	23.3	80	18.1	1	4	315	0.00	30.067 
09:45	23.3	23.3	23.3	80	18.1	1	3	112	0.00	30.076 
09:50	23.5	23.5	23.5	80	18.3	0	2	45	0.00	30.076 
09:55	23.5	23.5	23.5	79	18.0	1	5	22	0.00	30.076 
10:00	23.5	23.5	23.5	79	18.0	1	4	68	0.00	30.079 
10:05	23.6	23.6	23.6	79	18.1	0	2	68	0.00	30.079 
10:10	23.6	23.6	23.6	78	17.8	0	4	68	0.00	30.079 
10:15	23.8	23.8	23.8	78	18.0	0	3	68	0.00	30.088 
10:20	23.9	23.9	23.9	78	18.1	0	2	45	0.00	30.088 
10:25	23.9	23.9	23.9	78	18.1	1	4	45	0.00	30.088 
10:30	24.1	24.1	24.1	78	18.3	0	3	45	0.00	30.091 
10:35	24.1	24.1	24.1	79	18.5	0	2	22	0.00	30.091 
10:40	24.1	24.1	24.1	79	18.5	1	4	338	0.00	30.091 
10:45	23.9	23.9	23.9	79	18.4	1	5	0	0.00	30.095 
10:50	23.9	23.9	23.9	80	18.6	1	4	0	0.00	30.095 
10:55	24.1	24.1	24.1	80	18.8	1	4	112	0.00	30.095 
11:00	24.1	24.1	24.1	79	18.5	1	4	45	0.00	30.097 
11:05	24.1	24.1	24.1	79	18.5	1	3	0	0.00	30.097 
11:10	24.1	24.1	24.1	78	18.3	1	5	0	0.00	30.097 
11:15	23.9	23.9	23.9	78	18.1	1	4	338	0.00	30.101 
11:20	24.1	24.1	24.1	78	18.3	0	3	338	0.00	30.101 
11:25	24.1	24.1	24.1	77	18.0	1	4	0	0.00	30.101 
11:30	24.1	24.1	24.1	77	18.0	1	4	0	0.00	30.108 
11:35	24.1	24.1	24.1	77	18.0	1	4	338	0.00	30.108 
11:40	24.1	24.1	24.1	77	18.0	1	5	338	0.00	30.108 
11:45	24.1	24.1	24.1	77	18.0	2	5	315	0.00	30.108 
11:50	24.1	24.1	24.1	77	18.0	1	4	0	0.00	30.108 
11:55	24.2	24.2	24.2	77	18.1	1	3	45	0.00	30.108 
12:00	24.2	24.2	24.2	77	18.1	1	5	0	0.00	30.104 
12:05	24.1	24.1	24.1	76	17.7	2	7	338	0.00	30.104 
12:10	24.2	24.2	24.2	76	17.7	1	4	22	0.00	30.104 
12:15	24.4	24.4	24.4	76	17.9	1	4	112	0.00	30.099 
12:20	24.4	24.4	24.4	76	17.9	1	4	338	0.00	30.099 
12:25	24.5	24.5	24.5	76	18.0	1	7	45	0.00	30.099 
12:30	24.7	24.7	24.7	75	17.9	1	4	68	0.00	30.098 
12:35	24.8	24.8	24.8	74	17.7	1	7	45	0.00	30.098 
12:40	25.0	25.0	25.0	74	17.9	1	4	45	0.00	30.098 
12:45	25.1	25.1	25.1	74	18.0	2	6	0	0.00	30.096 
12:50	25.1	25.1	25.1	74	18.0	1	5	45	0.00	30.096 
12:55	25.3	25.3	25.3	73	17.9	1	3	68	0.00	30.096 
13:00	25.1	25.1	25.1	74	18.0	1	3	45	0.00	30.091 
13:05	25.0	25.0	25.0	75	18.2	1	4	292	0.00	30.091 
13:10	25.0	25.0	25.0	75	18.2	1	3	45	0.00	30.091 
13:15	24.8	24.8	24.8	75	18.0	1	4	0	0.00	30.094 
13:20	24.8	24.8	24.8	76	18.3	1	4	0	0.00	30.094 
13:25	24.8	24.8	24.8	76	18.3	1	4	338	0.00	30.094 
13:30	25.0	25.0	25.0	77	18.8	1	3	0	0.00	30.094 
13:35	25.0	25.0	25.0	77	18.8	1	2	45	0.00	30.094 
13:40	25.0	25.0	25.0	77	18.8	1	2	68	0.00	30.094 
13:45	25.0	25.0	25.0	76	18.5	1	3	45	0.00	30.089 
13:50	25.1	25.1	25.1	76	18.6	0	3	45	0.00	30.089 
13:55	25.0	25.0	25.0	76	18.5	1	4	45	0.00	30.089 
14:00	25.1	25.1	25.1	76	18.6	0	3	0	0.00	30.089 
14:05	25.1	25.1	25.1	76	18.6	1	3	22	0.00	30.089 
14:10	25.1	25.1	25.1	76	18.6	1	3	315	0.00	30.089 
14:15	25.3	25.3	25.3	76	18.8	1	5	315	0.00	30.097 
14:20	25.3	25.3	25.3	76	18.8	1	3	45	0.00	30.097 
14:25	25.3	25.3	25.3	76	18.8	1	3	45	0.00	30.097 
14:30	25.1	25.1	25.1	76	18.6	1	3	0	0.00	30.097 
14:35	25.1	25.1	25.1	76	18.6	1	5	315	0.00	30.097 
14:40	25.1	25.1	25.1	76	18.6	1	3	45	0.00	30.097 
14:45	25.3	25.3	25.3	76	18.8	1	3	45	0.00	30.098 
14:50	25.1	25.1	25.1	76	18.6	1	4	45	0.00	30.098 
14:55	25.1	25.1	25.1	76	18.6	1	5	338	0.00	30.098 
15:00	25.1	25.1	25.1	76	18.6	1	4	338	0.00	30.097 
15:05	25.1	25.1	25.1	76	18.6	1	2	338	0.00	30.097 
15:10	25.1	25.1	25.1	76	18.6	1	4	338	0.00	30.097 
15:15	25.3	25.3	25.3	76	18.8	0	2	338	0.00	30.101 
15:20	25.3	25.3	25.3	76	18.8	0	2	338	0.00	30.101 
15:25	25.3	25.3	25.3	76	18.8	2	5	45	0.00	30.101 
15:30	25.4	25.4	25.4	76	18.9	1	5	22	0.00	30.102 
15:35	25.4	25.4	25.4	76	18.9	0	2	45	0.00	30.102 
15:40	25.4	25.4	25.4	75	18.6	1	7	90	0.00	30.102 
15:45	25.4	25.4	25.4	75	18.6	1	4	90	0.00	30.107 
15:50	25.4	25.4	25.4	75	18.6	1	4	338	0.00	30.107 
15:55	25.4	25.4	25.4	75	18.6	0	2	0	0.00	30.107 
16:00	25.6	25.6	25.6	75	18.8	1	5	0	0.00	30.109 
16:05	25.6	25.6	25.6	75	18.8	1	4	0	0.00	30.109 
16:10	25.7	25.7	25.7	75	18.9	0	2	0	0.00	30.109 
16:15	25.7	25.7	25.7	74	18.6	1	4	0	0.00	30.113 
16:20	25.7	25.7	25.7	74	18.6	1	3	0	0.00	30.113 
16:25	25.7	25.7	25.7	74	18.6	1	4	68	0.00	30.113 
16:30	25.7	25.7	25.7	74	18.6	1	4	292	0.00	30.114 
16:35	25.7	25.7	25.7	74	18.6	0	2	292	0.00	30.114 
16:40	25.8	25.8	25.8	74	18.7	1	3	292	0.00	30.114 
16:45	25.8	25.8	25.8	74	18.7	1	3	292	0.00	30.114 
16:50	25.8	25.8	25.8	75	19.0	1	3	338	0.00	30.114 
16:55	25.6	25.6	25.6	75	18.8	2	5	0	0.00	30.114 
17:00	25.4	25.4	25.4	76	18.9	1	3	315	0.00	30.119 
17:05	25.3	25.3	25.3	76	18.8	2	5	315	0.00	30.119 
17:10	25.1	25.1	25.1	76	18.6	1	4	292	0.00	30.119 
17:15	25.1	25.1	25.1	76	18.6	1	4	292	0.00	30.122 
17:20	25.0	25.0	25.0	76	18.5	1	3	292	0.00	30.122 
17:25	25.0	25.0	25.0	77	18.8	1	4	22	0.00	30.122 
17:30	25.0	25.0	25.0	77	18.8	0	2	22	0.00	30.120 
17:35	25.0	25.0	25.0	77	18.8	0	2	22	0.00	30.120 
17:40	25.0	25.0	25.0	76	18.5	1	4	22	0.00	30.120 
17:45	24.8	24.8	24.8	76	18.3	1	3	338	0.00	30.120 
17:50	24.8	24.8	24.8	77	18.6	1	2	292	0.00	30.120 
17:55	24.7	24.7	24.7	77	18.5	1	4	292	0.00	30.120 
18:00	24.5	24.5	24.5	76	18.0	1	4	315	0.00	30.133 
18:05	24.4	24.4	24.4	76	17.9	1	6	315	0.00	30.133 
18:10	24.2	24.2	24.2	76	17.7	1	4	0	0.00	30.133 
18:15	24.1	24.1	24.1	77	18.0	1	4	315	0.00	30.142 
18:20	24.1	24.1	24.1	77	18.0	1	3	315	0.00	30.142 
18:25	23.9	23.9	23.9	77	17.8	1	3	315	0.00	30.142 
18:30	23.9	23.9	23.9	77	17.8	1	2	315	0.00	30.154 
18:35	23.8	23.8	23.8	77	17.7	0	3	315	0.00	30.154 
18:40	23.8	23.8	23.8	77	17.7	0	2	315	0.00	30.154 
18:45	23.8	23.8	23.8	77	17.7	0	3	315	0.00	30.161 
18:50	23.8	23.8	23.8	77	17.7	0	2	315	0.00	30.161 
18:55	23.8	23.8	23.8	77	17.7	0	1	315	0.00	30.161 
19:00	23.6	23.6	23.6	77	17.5	0	2	315	0.00	30.166 
19:05	23.6	23.6	23.6	77	17.5	1	2	315	0.00	30.166 
19:10	23.6	23.6	23.6	77	17.5	0	3	315	0.00	30.166 
19:15	23.6	23.6	23.6	77	17.5	0	3	315	0.00	30.171 
19:20	23.6	23.6	23.6	77	17.5	1	3	315	0.00	30.171 
19:25	23.5	23.5	23.5	77	17.4	1	3	315	0.00	30.171 
19:30	23.3	23.3	23.3	77	17.2	1	4	338	0.00	30.179 
19:35	23.3	23.3	23.3	77	17.2	0	2	338	0.00	30.179 
19:40	23.2	23.2	23.2	77	17.1	1	2	0	0.00	30.179 
19:45	23.2	23.2	23.2	77	17.1	0	2	0	0.00	30.184 
19:50	23.0	23.0	23.0	77	16.9	0	3	0	0.00	30.184 
19:55	22.9	22.9	22.9	77	16.8	1	4	0	0.00	30.184 
20:00	22.9	22.9	22.9	77	16.8	0	2	0	0.00	30.184 
20:05	22.7	22.7	22.7	77	16.6	0	3	22	0.00	30.184 
20:10	22.5	22.5	22.5	77	16.4	0	2	22	0.00	30.184 
20:15	22.4	22.4	22.4	77	16.3	0	2	22	0.00	30.186 
20:20	22.4	22.4	22.4	77	16.3	0	2	22	0.00	30.186 
20:25	22.2	22.2	22.2	78	16.4	0	3	22	0.00	30.186 
20:30	22.1	22.1	22.1	78	16.3	0	2	22	0.00	30.198 
20:35	21.9	21.9	21.9	78	16.1	0	1	22	0.00	30.198 
20:40	21.8	21.8	21.8	78	16.0	0	1	22	0.00	30.198 
20:45	21.6	21.6	21.6	78	15.8	0	2	22	0.00	30.200 
20:50	21.4	21.4	21.4	78	15.6	0	1	22	0.00	30.200 
20:55	21.3	21.3	21.3	78	15.5	0	2	22	0.00	30.200 
21:00	21.3	21.3	21.3	77	15.2	0	3	22	0.00	30.204 
21:05	21.1	21.1	21.1	77	15.0	0	2	22	0.00	30.204 
21:10	21.1	21.1	21.1	77	15.0	0	1	22	0.00	30.204 
21:15	21.0	21.0	21.0	77	14.9	0	2	22	0.00	30.210 
21:20	21.0	21.0	21.0	77	14.9	0	0	---	0.00	30.210 
21:25	20.8	20.8	20.8	78	15.0	0	1	22	0.00	30.210 
21:30	20.6	20.6	20.6	78	14.8	0	0	---	0.00	30.207 
21:35	20.5	20.5	20.5	78	14.8	0	1	22	0.00	30.207 
21:40	20.3	20.3	20.3	78	14.6	0	1	22	0.00	30.207 
21:45	20.3	20.3	20.3	78	14.6	0	2	22	0.00	30.217 
21:50	20.2	20.2	20.2	78	14.5	0	2	22	0.00	30.217 
21:55	20.2	20.2	20.2	78	14.5	0	3	22	0.00	30.217 
22:00	20.0	20.0	20.0	78	14.3	0	2	22	0.00	30.220 
22:05	19.9	19.9	19.9	78	14.2	0	2	22	0.00	30.220 
22:10	19.9	19.9	19.9	77	13.9	0	2	22	0.00	30.220 
22:15	19.7	19.7	19.7	78	14.0	0	3	22	0.00	30.217 
22:20	19.7	19.7	19.7	78	14.0	0	3	22	0.00	30.217 
22:25	19.5	19.5	19.5	78	13.8	0	2	22	0.00	30.217 
22:30	19.4	19.4	19.4	78	13.7	0	2	22	0.00	30.220 
22:35	19.4	19.4	19.4	78	13.7	0	2	22	0.00	30.220 
22:40	19.2	19.2	19.2	78	13.5	0	3	22	0.00	30.220 
22:45	19.1	19.1	19.1	78	13.4	0	3	22	0.00	30.226 
22:50	18.9	18.9	18.9	78	13.2	0	2	22	0.00	30.226 
22:55	18.9	18.9	18.9	78	13.2	1	3	22	0.00	30.226 
23:00	18.8	18.8	18.8	78	13.1	0	2	22	0.00	30.233 
23:05	18.6	18.6	18.6	78	12.9	0	2	22	0.00	30.233 
23:10	18.6	18.6	18.6	79	13.2	0	3	22	0.00	30.233 
23:15	18.4	18.4	18.4	79	13.0	0	1	22	0.00	30.234 
23:20	18.3	18.3	18.3	79	12.9	0	2	22	0.00	30.234 
23:25	18.1	18.1	18.1	79	12.7	0	3	22	0.00	30.234 
23:30	18.0	18.0	18.0	79	12.6	0	2	22	0.00	30.230 
23:35	18.0	18.0	18.0	79	12.6	0	3	22	0.00	30.230 
23:40	17.8	17.8	17.8	79	12.4	0	2	22	0.00	30.230 
23:45	17.7	17.7	17.7	79	12.3	0	1	22	0.00	30.222 
23:50	17.7	17.7	17.7	78	12.0	0	3	22	0.00	30.222 
23:55	17.5	17.5	17.5	78	11.8	0	3	22	0.00	30.222 

CoCoRaHS
IN-AL-39
A2 Web Hosting
Creative Commons License
GoDaddy
search engine by freefind advanced

loaded 2018-11-12 15:30:00 • last modified 2010-11-18 10:43:29
Privacy PolicyDisclaimer
• wx.awcolley.com is powered by PmWiki v.2002016 •
• all content (unless otherwise noted) © 2018 A W Colley